Time;durP1;ratioP1;P1;durP2;ratioP2;P2;SDS_P1;SDS_P2;PMS_P1;PMS_P2;Temp;Humidity;BMP_temperature;BMP_pressure;BME280_temperature;BME280_humidity;BME280_pressure;Samples;Min_cycle;Max_cycle;Signal;HPM_P1;HPM_P2
2023/12/31 00:01:45;;;;;;;3.53;3.37;;;10.90;99.90;;;;;;4895222;29;20183;-69
2023/12/31 00:04:11;;;;;;;3.50;3.30;;;10.80;99.90;;;;;;4896916;29;20492;-61
2023/12/31 00:06:36;;;;;;;3.67;3.47;;;10.70;99.90;;;;;;4894875;29;20179;-69
2023/12/31 00:09:02;;;;;;;3.93;3.73;;;10.80;99.90;;;;;;4887782;29;21009;-68
2023/12/31 00:11:28;;;;;;;3.63;3.30;;;10.80;99.90;;;;;;4892220;29;20682;-69
2023/12/31 00:13:54;;;;;;;4.00;3.63;;;10.80;99.90;;;;;;4894025;29;20192;-71
2023/12/31 00:16:20;;;;;;;3.50;3.40;;;11.00;99.90;;;;;;4892907;29;20181;-72
2023/12/31 00:18:45;;;;;;;3.53;3.33;;;10.90;99.90;;;;;;4910709;29;20217;-68
2023/12/31 00:21:11;;;;;;;4.17;3.87;;;11.00;99.90;;;;;;4910729;29;20507;-64
2023/12/31 00:23:37;;;;;;;4.47;3.40;;;11.00;99.90;;;;;;4898508;29;20631;-63
2023/12/31 00:26:03;;;;;;;3.83;3.60;;;11.00;99.90;;;;;;4864972;29;20684;-64
2023/12/31 00:28:29;;;;;;;4.20;3.90;;;11.00;99.90;;;;;;4863558;29;20493;-72
2023/12/31 00:30:55;;;;;;;4.20;3.90;;;10.90;99.90;;;;;;4894470;29;20455;-66
2023/12/31 00:33:20;;;;;;;4.23;3.83;;;10.90;99.90;;;;;;4897696;29;20525;-66
2023/12/31 00:35:47;;;;;;;4.20;3.90;;;10.90;99.90;;;;;;4895590;29;20187;-67
2023/12/31 00:38:13;;;;;;;3.90;3.70;;;11.10;99.90;;;;;;4895459;29;20183;-61
2023/12/31 00:40:39;;;;;;;4.40;4.00;;;11.00;99.90;;;;;;4899017;29;20447;-66
2023/12/31 00:43:04;;;;;;;3.93;3.73;;;11.00;99.90;;;;;;4898854;29;20202;-65
2023/12/31 00:45:30;;;;;;;4.30;4.00;;;10.80;99.90;;;;;;4879881;29;20184;-66
2023/12/31 00:47:56;;;;;;;4.50;4.20;;;11.00;99.90;;;;;;4880482;29;20224;-66
2023/12/31 00:50:22;;;;;;;4.73;4.20;;;11.10;99.90;;;;;;4890696;29;20206;-65
2023/12/31 00:52:47;;;;;;;4.30;4.10;;;11.00;99.90;;;;;;4898561;29;20202;-64
2023/12/31 00:55:13;;;;;;;4.40;4.17;;;10.90;99.90;;;;;;4897922;29;20233;-64
2023/12/31 00:57:39;;;;;;;4.53;4.23;;;10.90;99.90;;;;;;4897590;29;20199;-66
2023/12/31 01:00:05;;;;;;;5.30;4.80;;;10.90;99.90;;;;;;4903810;29;20446;-66
2023/12/31 01:02:31;;;;;;;4.70;4.40;;;10.80;99.90;;;;;;4906583;29;20202;-66
2023/12/31 01:04:57;;;;;;;4.30;4.00;;;10.90;99.90;;;;;;4905097;29;20408;-67
2023/12/31 01:07:23;;;;;;;4.23;4.03;;;11.00;99.90;;;;;;4898605;29;20608;-66
2023/12/31 01:09:48;;;;;;;4.87;4.43;;;10.90;99.90;;;;;;4903690;29;20198;-67
2023/12/31 01:12:14;;;;;;;4.53;4.23;;;10.90;99.90;;;;;;4895904;29;20199;-62
2023/12/31 01:14:41;;;;;;;5.07;4.63;;;10.90;99.90;;;;;;4906251;29;20439;-66
2023/12/31 01:17:08;;;;;;;4.03;3.83;;;11.00;99.90;;;;;;4908086;29;20421;-65
2023/12/31 01:19:35;;;;;;;4.23;4.03;;;11.10;99.90;;;;;;4908589;29;20427;-66
2023/12/31 01:22:00;;;;;;;4.40;4.10;;;11.10;99.90;;;;;;4904552;29;20421;-65
2023/12/31 01:24:26;;;;;;;4.63;4.33;;;11.10;99.90;;;;;;4907407;29;20423;-65
2023/12/31 01:26:52;;;;;;;5.27;4.80;;;11.10;99.90;;;;;;4904575;29;20183;-67
2023/12/31 01:29:18;;;;;;;4.57;4.27;;;11.10;99.90;;;;;;4885669;29;20192;-61
2023/12/31 01:31:44;;;;;;;5.07;4.47;;;11.10;99.90;;;;;;4906786;29;20419;-65
2023/12/31 01:34:09;;;;;;;4.30;4.10;;;11.10;99.90;;;;;;4906678;29;20429;-66
2023/12/31 01:36:35;;;;;;;5.50;5.00;;;11.10;99.90;;;;;;4898773;29;20178;-66
2023/12/31 01:39:01;;;;;;;4.57;4.27;;;10.80;99.90;;;;;;4904385;29;20178;-65
2023/12/31 01:41:28;;;;;;;4.63;4.40;;;10.90;99.90;;;;;;4900406;29;20193;-65
2023/12/31 01:44:02;;;;;;;4.43;4.07;;;11.00;99.90;;;;;;4899757;29;20186;-66
2023/12/31 01:46:30;;;;;;;4.90;4.60;;;11.10;99.90;;;;;;4897390;29;20427;-65
2023/12/31 01:48:56;;;;;;;4.13;3.93;;;11.10;99.90;;;;;;4879631;29;20419;-66
2023/12/31 01:51:24;;;;;;;5.10;4.77;;;11.00;99.90;;;;;;4894160;29;20470;-64
2023/12/31 01:53:50;;;;;;;4.03;3.83;;;11.10;99.90;;;;;;4879121;29;20442;-65
2023/12/31 01:56:17;;;;;;;3.80;3.60;;;11.00;99.90;;;;;;4879526;29;20563;-60
2023/12/31 01:58:43;;;;;;;3.90;3.63;;;11.10;99.90;;;;;;4889534;29;20488;-67
2023/12/31 02:01:10;;;;;;;3.80;3.50;;;11.10;99.90;;;;;;4900355;29;20417;-66
2023/12/31 02:03:36;;;;;;;3.90;3.70;;;11.10;99.90;;;;;;4884119;29;21255;-65
2023/12/31 02:06:02;;;;;;;3.90;3.70;;;11.20;99.90;;;;;;4879131;29;20411;-65
2023/12/31 02:08:28;;;;;;;4.07;3.70;;;11.20;99.90;;;;;;4877572;29;20183;-66
2023/12/31 02:10:54;;;;;;;4.27;3.97;;;11.30;99.90;;;;;;4878806;29;20463;-65
2023/12/31 02:13:20;;;;;;;4.27;3.97;;;11.30;99.90;;;;;;4876054;29;20442;-61
2023/12/31 02:15:46;;;;;;;4.87;4.47;;;11.30;99.90;;;;;;4879789;29;20924;-66
2023/12/31 02:18:12;;;;;;;3.50;3.30;;;11.30;99.90;;;;;;4878860;29;20497;-66
2023/12/31 02:20:38;;;;;;;3.50;3.30;;;11.20;99.90;;;;;;4877709;29;20189;-66
2023/12/31 02:23:05;;;;;;;3.80;3.60;;;11.20;99.90;;;;;;4889846;29;20238;-66
2023/12/31 02:25:37;;;;;;;3.70;3.40;;;11.20;99.90;;;;;;4896702;29;20179;-66
2023/12/31 02:28:03;;;;;;;3.57;3.37;;;11.10;99.90;;;;;;4881208;29;20564;-66
2023/12/31 02:30:28;;;;;;;3.73;3.50;;;11.00;99.90;;;;;;4896773;29;20462;-66
2023/12/31 02:32:54;;;;;;;3.67;3.40;;;10.90;99.90;;;;;;4892950;29;20435;-66
2023/12/31 02:35:20;;;;;;;3.70;3.50;;;11.00;99.90;;;;;;4884957;29;20206;-61
2023/12/31 02:37:46;;;;;;;4.27;4.00;;;11.00;99.90;;;;;;4897207;29;20192;-66
2023/12/31 02:40:11;;;;;;;3.90;3.60;;;11.10;99.90;;;;;;4896918;29;20629;-66
2023/12/31 02:42:37;;;;;;;3.67;3.43;;;11.20;99.90;;;;;;4896768;29;20377;-66
2023/12/31 02:45:03;;;;;;;4.10;3.90;;;11.10;99.90;;;;;;4897418;29;20186;-66
2023/12/31 02:47:29;;;;;;;3.80;3.60;;;10.90;99.90;;;;;;4896540;29;20178;-66
2023/12/31 02:49:55;;;;;;;3.73;3.53;;;11.00;99.90;;;;;;4892911;29;20467;-66
2023/12/31 02:52:20;;;;;;;4.00;3.70;;;11.00;99.90;;;;;;4896046;29;20517;-61
2023/12/31 02:54:46;;;;;;;4.10;3.80;;;10.90;99.90;;;;;;4895754;29;20700;-66
2023/12/31 02:57:12;;;;;;;3.90;3.70;;;10.90;99.90;;;;;;4897106;29;20631;-66
2023/12/31 02:59:38;;;;;;;4.10;3.90;;;10.90;99.90;;;;;;4895978;29;20212;-66
2023/12/31 03:02:04;;;;;;;3.70;3.50;;;10.80;99.90;;;;;;4895679;29;20842;-63
2023/12/31 03:04:30;;;;;;;4.10;3.80;;;10.80;99.90;;;;;;4893297;29;20191;-66
2023/12/31 03:06:56;;;;;;;3.77;3.57;;;10.90;99.90;;;;;;4879099;29;20431;-65
2023/12/31 03:09:21;;;;;;;3.70;3.50;;;11.00;99.90;;;;;;4877878;29;20273;-62
2023/12/31 03:11:53;;;;;;;3.57;3.37;;;11.10;99.90;;;;;;4882212;29;20189;-66
2023/12/31 03:14:19;;;;;;;3.43;3.23;;;11.00;99.90;;;;;;4885340;29;20175;-65
2023/12/31 03:16:45;;;;;;;3.80;3.60;;;11.10;99.90;;;;;;4896917;29;20423;-66
2023/12/31 03:19:15;;;;;;;3.60;3.40;;;11.00;99.90;;;;;;4896723;29;20610;-66
2023/12/31 03:21:41;;;;;;;4.27;3.97;;;10.70;99.90;;;;;;4891742;29;20985;-66
2023/12/31 03:24:08;;;;;;;4.00;3.80;;;10.60;99.90;;;;;;4878064;29;20448;-63
2023/12/31 03:26:34;;;;;;;4.80;4.40;;;10.70;99.90;;;;;;4877551;29;20535;-65
2023/12/31 03:29:01;;;;;;;4.30;4.00;;;10.70;99.90;;;;;;4878259;29;20422;-66
2023/12/31 03:31:26;;;;;;;4.07;3.77;;;10.80;99.90;;;;;;4877866;29;20616;-66
2023/12/31 03:33:52;;;;;;;3.73;3.57;;;10.80;99.90;;;;;;4884868;29;20442;-66
2023/12/31 03:36:20;;;;;;;4.27;3.97;;;10.80;99.90;;;;;;4891334;29;20486;-63
2023/12/31 03:38:47;;;;;;;3.80;3.60;;;10.80;99.90;;;;;;4895123;29;20428;-66
2023/12/31 03:41:13;;;;;;;4.10;3.53;;;10.70;99.90;;;;;;4896802;29;20415;-66
2023/12/31 03:43:39;;;;;;;3.80;3.60;;;10.60;99.90;;;;;;4895610;29;20419;-66
2023/12/31 03:46:04;;;;;;;4.70;3.83;;;10.60;99.90;;;;;;4892414;29;20581;-65
2023/12/31 03:48:30;;;;;;;4.33;4.03;;;10.80;99.90;;;;;;4895791;29;20271;-65
2023/12/31 03:50:56;;;;;;;4.63;3.73;;;10.80;99.90;;;;;;4879533;29;20317;-66
2023/12/31 03:53:22;;;;;;;3.97;3.63;;;10.80;99.90;;;;;;4897405;29;20186;-65
2023/12/31 03:55:47;;;;;;;4.00;3.70;;;10.80;99.90;;;;;;4896638;29;20748;-66
2023/12/31 03:58:13;;;;;;;3.70;3.50;;;10.80;99.90;;;;;;4881594;29;20276;-66
2023/12/31 04:00:39;;;;;;;4.70;3.73;;;10.70;99.90;;;;;;4882131;29;20259;-66
2023/12/31 04:03:04;;;;;;;3.70;3.50;;;10.60;99.90;;;;;;4899504;29;20234;-66
2023/12/31 04:05:31;;;;;;;3.90;3.60;;;10.80;99.90;;;;;;4890259;29;20240;-66
2023/12/31 04:07:56;;;;;;;3.87;3.67;;;11.00;99.90;;;;;;4881774;29;20530;-66
2023/12/31 04:10:22;;;;;;;4.53;3.60;;;11.00;99.90;;;;;;4883813;29;20507;-61
2023/12/31 04:12:48;;;;;;;3.63;3.43;;;11.00;99.90;;;;;;4893862;29;20466;-66
2023/12/31 04:15:14;;;;;;;3.57;3.37;;;11.00;99.90;;;;;;4881519;29;20187;-64
2023/12/31 04:17:40;;;;;;;3.80;3.60;;;11.10;99.90;;;;;;4898923;29;20959;-65
2023/12/31 04:20:06;;;;;;;3.50;3.30;;;11.00;99.90;;;;;;4889015;29;20188;-66
2023/12/31 04:22:32;;;;;;;4.00;3.70;;;11.00;99.90;;;;;;4881289;29;20639;-66
2023/12/31 04:24:58;;;;;;;3.53;3.33;;;11.10;99.90;;;;;;4899552;29;20456;-65
2023/12/31 04:27:23;;;;;;;3.40;3.30;;;11.00;99.90;;;;;;4888320;29;20267;-61
2023/12/31 04:29:49;;;;;;;3.50;3.30;;;10.80;99.90;;;;;;4892564;29;20263;-66
2023/12/31 04:32:15;;;;;;;3.43;3.23;;;10.90;99.90;;;;;;4898784;29;20237;-64
2023/12/31 04:34:41;;;;;;;3.50;3.30;;;10.90;99.90;;;;;;4898448;29;20186;-66
2023/12/31 04:37:06;;;;;;;3.93;3.73;;;10.90;99.90;;;;;;4897495;29;20620;-66
2023/12/31 04:39:32;;;;;;;3.47;3.27;;;11.00;99.90;;;;;;4879674;29;20713;-65
2023/12/31 04:41:58;;;;;;;3.57;3.37;;;11.00;99.90;;;;;;4884445;29;20265;-65
2023/12/31 04:44:23;;;;;;;3.47;3.23;;;11.00;99.90;;;;;;4897572;29;20183;-62
2023/12/31 04:46:49;;;;;;;3.07;2.77;;;11.00;99.90;;;;;;4882947;29;20185;-66
2023/12/31 04:49:15;;;;;;;3.67;3.37;;;11.10;99.90;;;;;;4882146;29;20808;-66
2023/12/31 04:51:42;;;;;;;3.10;3.00;;;11.00;99.90;;;;;;4879851;29;20246;-66
2023/12/31 04:54:08;;;;;;;3.43;3.23;;;10.90;99.90;;;;;;4898604;29;20426;-67
2023/12/31 04:56:34;;;;;;;3.57;3.37;;;11.00;99.90;;;;;;4893063;29;20467;-66
2023/12/31 04:59:00;;;;;;;3.40;3.20;;;10.80;99.90;;;;;;4881344;29;20428;-66
2023/12/31 05:01:31;;;;;;;3.47;3.27;;;10.90;99.90;;;;;;4880182;29;20436;-65
2023/12/31 05:03:58;;;;;;;3.10;3.00;;;10.90;99.90;;;;;;4880557;29;20481;-65
2023/12/31 05:06:25;;;;;;;3.00;2.80;;;10.80;99.90;;;;;;4880104;29;20940;-61
2023/12/31 05:08:51;;;;;;;3.60;3.30;;;10.90;99.90;;;;;;4880661;29;20432;-66
2023/12/31 05:11:17;;;;;;;3.40;3.20;;;11.00;99.90;;;;;;4892082;29;20802;-67
2023/12/31 05:13:43;;;;;;;3.40;3.20;;;10.90;99.90;;;;;;4879906;29;20676;-65
2023/12/31 05:16:13;;;;;;;3.40;3.20;;;10.90;99.90;;;;;;4897585;29;20430;-66
2023/12/31 05:18:53;;;;;;;3.40;3.20;;;10.80;99.90;;;;;;4897653;29;20427;-70
2023/12/31 05:21:19;;;;;;;5.53;3.50;;;10.90;99.90;;;;;;4897167;29;20434;-69
2023/12/31 05:23:45;;;;;;;3.17;3.03;;;11.00;99.90;;;;;;4889281;29;20443;-70
2023/12/31 05:26:11;;;;;;;3.50;3.30;;;11.00;99.90;;;;;;4879579;29;20892;-67
2023/12/31 05:28:37;;;;;;;3.50;3.30;;;11.10;99.90;;;;;;4893331;29;20462;-69
2023/12/31 05:31:03;;;;;;;3.60;3.30;;;11.20;99.90;;;;;;4879988;29;20458;-70
2023/12/31 05:33:29;;;;;;;3.50;3.20;;;11.30;99.90;;;;;;4894198;29;20428;-70
2023/12/31 05:35:54;;;;;;;3.17;3.07;;;11.30;99.90;;;;;;4898005;29;20641;-69
2023/12/31 05:38:20;;;;;;;3.10;2.93;;;11.20;99.90;;;;;;4897574;29;20218;-70
2023/12/31 05:40:46;;;;;;;3.30;3.10;;;11.10;99.90;;;;;;4892566;29;20189;-69
2023/12/31 05:43:12;;;;;;;3.37;3.17;;;11.10;99.90;;;;;;4889441;29;20189;-69
2023/12/31 05:45:38;;;;;;;3.30;3.10;;;11.20;99.90;;;;;;4879011;29;20262;-69
2023/12/31 05:48:04;;;;;;;3.50;3.20;;;11.20;99.90;;;;;;4880987;29;20459;-69
2023/12/31 05:50:30;;;;;;;3.20;3.00;;;11.30;99.90;;;;;;4886291;29;20468;-70
2023/12/31 05:52:56;;;;;;;3.03;2.93;;;11.30;99.90;;;;;;4898320;29;20876;-69
2023/12/31 05:55:21;;;;;;;3.17;3.07;;;11.40;99.90;;;;;;4897151;29;20320;-70
2023/12/31 05:57:47;;;;;;;3.40;3.20;;;11.30;99.90;;;;;;4895615;29;20182;-69
2023/12/31 06:00:13;;;;;;;3.67;3.47;;;11.30;99.90;;;;;;4897676;29;20418;-69
2023/12/31 06:02:40;;;;;;;4.20;3.83;;;11.50;99.90;;;;;;4897402;29;20180;-70
2023/12/31 06:05:06;;;;;;;3.50;3.30;;;11.40;99.90;;;;;;4896090;29;20433;-69
2023/12/31 06:07:32;;;;;;;4.43;4.03;;;11.30;99.90;;;;;;4896087;29;20428;-69
2023/12/31 06:09:58;;;;;;;4.20;3.90;;;11.30;99.90;;;;;;4879147;29;20473;-69
2023/12/31 06:12:24;;;;;;;3.93;3.67;;;11.20;99.90;;;;;;4875953;29;20633;-62
2023/12/31 06:14:49;;;;;;;3.73;3.53;;;11.10;99.90;;;;;;4893440;29;20471;-69
2023/12/31 06:17:15;;;;;;;3.37;3.20;;;11.20;99.90;;;;;;4896194;29;20597;-69
2023/12/31 06:19:41;;;;;;;4.77;4.37;;;11.30;99.90;;;;;;4878439;29;20191;-70
2023/12/31 06:22:07;;;;;;;4.97;4.67;;;11.30;99.90;;;;;;4896211;29;20689;-70
2023/12/31 06:24:32;;;;;;;3.80;3.60;;;11.30;99.90;;;;;;4896781;29;20644;-69
2023/12/31 06:26:59;;;;;;;3.97;3.67;;;11.30;99.90;;;;;;4895764;29;20599;-70
2023/12/31 06:29:24;;;;;;;3.37;3.27;;;11.20;99.90;;;;;;4896801;29;20183;-63
2023/12/31 06:31:50;;;;;;;4.40;4.03;;;11.20;99.90;;;;;;4896880;29;20414;-70
2023/12/31 06:34:16;;;;;;;3.60;3.40;;;11.20;99.90;;;;;;4878505;29;20198;-70
2023/12/31 06:36:42;;;;;;;4.87;4.57;;;11.20;99.90;;;;;;4882997;29;20190;-69
2023/12/31 06:39:09;;;;;;;4.67;4.30;;;11.20;99.90;;;;;;4894977;29;20437;-70
2023/12/31 06:41:36;;;;;;;3.80;3.60;;;11.20;99.90;;;;;;4890352;29;20443;-70
2023/12/31 06:44:02;;;;;;;4.30;4.00;;;11.30;99.90;;;;;;4890233;29;20562;-69
2023/12/31 06:46:27;;;;;;;3.77;3.57;;;11.30;99.90;;;;;;4883942;29;20527;-63
2023/12/31 06:48:56;;;;;;;4.03;3.50;;;11.30;99.90;;;;;;4895690;29;20175;-69
2023/12/31 06:51:21;;;;;;;4.30;4.00;;;11.30;99.90;;;;;;4884250;29;20259;-70
2023/12/31 06:53:47;;;;;;;3.30;3.10;;;11.40;99.90;;;;;;4861544;29;20524;-69
2023/12/31 06:56:13;;;;;;;3.23;3.10;;;11.50;99.90;;;;;;4878534;29;20224;-69
2023/12/31 06:58:39;;;;;;;4.10;3.80;;;11.50;99.90;;;;;;4888384;29;20447;-69
2023/12/31 07:01:05;;;;;;;3.70;3.50;;;11.40;99.90;;;;;;4878789;29;20243;-71
2023/12/31 07:03:31;;;;;;;3.67;3.40;;;11.40;99.90;;;;;;4894068;29;20215;-68
2023/12/31 07:05:57;;;;;;;3.37;3.07;;;11.30;99.90;;;;;;4884574;29;20425;-70
2023/12/31 07:08:23;;;;;;;3.83;3.53;;;11.40;99.90;;;;;;4883329;29;20434;-70
2023/12/31 07:10:50;;;;;;;3.80;3.50;;;11.40;99.90;;;;;;4879511;29;20521;-69
2023/12/31 07:13:16;;;;;;;4.90;4.50;;;11.30;99.90;;;;;;4863047;29;20425;-69
2023/12/31 07:15:43;;;;;;;3.20;3.10;;;11.40;99.90;;;;;;4862541;29;20472;-64
2023/12/31 07:18:09;;;;;;;3.63;3.33;;;11.30;99.90;;;;;;4888158;29;20189;-64
2023/12/31 07:20:35;;;;;;;3.17;3.03;;;11.30;99.90;;;;;;4894751;29;20826;-65
2023/12/31 07:23:01;;;;;;;3.70;3.50;;;11.30;99.90;;;;;;4887690;29;20487;-68
2023/12/31 07:25:28;;;;;;;3.80;3.60;;;11.30;99.90;;;;;;4877141;29;20936;-63
2023/12/31 07:27:57;;;;;;;3.67;3.47;;;11.30;99.90;;;;;;4894198;29;20584;-65
2023/12/31 07:30:23;;;;;;;3.40;3.20;;;11.20;99.90;;;;;;4885525;29;20532;-64
2023/12/31 07:32:49;;;;;;;3.40;3.20;;;11.30;99.90;;;;;;4891984;29;20447;-64
2023/12/31 07:35:15;;;;;;;3.80;3.60;;;11.40;99.90;;;;;;4882220;29;20196;-64
2023/12/31 07:37:41;;;;;;;3.90;3.60;;;11.60;99.90;;;;;;4881481;29;20185;-65
2023/12/31 07:40:07;;;;;;;3.83;3.53;;;11.70;99.90;;;;;;4882031;29;20557;-64
2023/12/31 07:42:35;;;;;;;5.03;3.97;;;11.70;99.90;;;;;;4885911;29;20189;-64
2023/12/31 07:45:01;;;;;;;4.07;3.87;;;11.80;99.90;;;;;;4884958;29;20423;-64
2023/12/31 07:47:27;;;;;;;3.90;3.70;;;11.70;99.90;;;;;;4873930;29;20920;-65
2023/12/31 07:49:52;;;;;;;3.40;3.30;;;11.70;99.90;;;;;;4891617;29;20471;-65
2023/12/31 07:52:18;;;;;;;4.17;3.80;;;11.60;99.90;;;;;;4874361;29;20192;-64
2023/12/31 07:54:44;;;;;;;4.00;3.70;;;11.70;99.90;;;;;;4898726;29;20257;-65
2023/12/31 07:57:10;;;;;;;4.03;3.83;;;11.60;99.90;;;;;;4897315;29;20194;-62
2023/12/31 07:59:35;;;;;;;3.90;3.60;;;11.50;99.90;;;;;;4895285;29;20192;-64
2023/12/31 08:02:03;;;;;;;3.97;3.77;;;11.50;99.90;;;;;;4895722;29;20183;-65
2023/12/31 08:04:29;;;;;;;4.40;4.00;;;11.50;99.90;;;;;;4897306;29;20181;-61
2023/12/31 08:06:55;;;;;;;4.47;4.17;;;11.60;99.90;;;;;;4887030;29;20462;-64
2023/12/31 08:09:20;;;;;;;3.63;3.40;;;11.50;99.90;;;;;;4896899;29;20427;-64
2023/12/31 08:11:46;;;;;;;4.23;3.93;;;11.50;99.90;;;;;;4896930;29;20839;-64
2023/12/31 08:14:12;;;;;;;4.37;4.07;;;11.60;99.90;;;;;;4899139;29;20534;-64
2023/12/31 08:16:38;;;;;;;3.90;3.70;;;11.60;99.90;;;;;;4899391;29;20197;-64
2023/12/31 08:19:04;;;;;;;4.50;4.10;;;11.70;99.90;;;;;;4892339;29;20527;-64
2023/12/31 08:21:31;;;;;;;3.93;3.63;;;11.70;99.90;;;;;;4895754;29;20538;-63
2023/12/31 08:23:56;;;;;;;4.13;3.47;;;11.50;99.90;;;;;;4892841;29;20439;-64
2023/12/31 08:26:22;;;;;;;3.70;3.50;;;11.50;99.90;;;;;;4886887;29;20445;-63
2023/12/31 08:28:49;;;;;;;4.40;4.10;;;11.50;99.90;;;;;;4891441;29;20190;-62
2023/12/31 08:31:16;;;;;;;5.00;4.50;;;11.50;99.90;;;;;;4897112;29;20499;-64
2023/12/31 08:33:42;;;;;;;4.23;4.03;;;11.40;99.90;;;;;;4896437;29;20805;-64
2023/12/31 08:36:08;;;;;;;4.87;4.33;;;11.40;99.90;;;;;;4897202;29;20429;-63
2023/12/31 08:38:34;;;;;;;3.90;3.70;;;11.50;99.90;;;;;;4877286;29;20447;-64
2023/12/31 08:41:00;;;;;;;4.10;3.80;;;11.60;99.90;;;;;;4894666;29;20920;-64
2023/12/31 08:43:26;;;;;;;4.10;3.80;;;11.50;99.90;;;;;;4890833;29;20188;-64
2023/12/31 08:45:53;;;;;;;4.07;3.83;;;11.50;99.90;;;;;;4874452;29;20909;-65
2023/12/31 08:48:20;;;;;;;4.60;4.30;;;11.50;99.90;;;;;;4891794;29;20532;-64
2023/12/31 08:50:46;;;;;;;4.27;3.97;;;11.30;99.90;;;;;;4877332;29;20646;-65
2023/12/31 08:53:11;;;;;;;5.23;4.80;;;11.30;99.90;;;;;;4881953;29;20504;-64
2023/12/31 08:55:37;;;;;;;3.73;3.50;;;11.10;99.90;;;;;;4879139;29;20481;-64
2023/12/31 08:58:03;;;;;;;3.57;3.37;;;11.20;99.90;;;;;;4898631;29;20271;-63
2023/12/31 09:00:30;;;;;;;3.40;3.20;;;11.30;99.90;;;;;;4897512;29;20185;-64
2023/12/31 09:02:56;;;;;;;4.50;4.10;;;11.30;99.90;;;;;;4892956;29;20835;-64
2023/12/31 09:05:22;;;;;;;3.43;3.23;;;11.40;99.90;;;;;;4895109;29;20452;-65
2023/12/31 09:07:48;;;;;;;3.63;3.43;;;11.30;99.90;;;;;;4897024;29;20689;-64
2023/12/31 09:10:14;;;;;;;3.40;3.20;;;11.50;99.90;;;;;;4883447;29;20487;-65
2023/12/31 09:12:40;;;;;;;3.60;3.40;;;11.50;99.90;;;;;;4882752;29;20442;-65
2023/12/31 09:15:07;;;;;;;4.10;3.53;;;11.50;99.90;;;;;;4897863;29;20445;-64
2023/12/31 09:17:33;;;;;;;4.40;3.53;;;11.50;99.90;;;;;;4879640;29;20585;-64
2023/12/31 09:19:59;;;;;;;3.60;3.40;;;11.50;99.90;;;;;;4886734;29;20436;-67
2023/12/31 09:22:26;;;;;;;3.83;3.53;;;11.60;99.90;;;;;;4895135;29;20425;-65
2023/12/31 09:24:52;;;;;;;3.70;3.50;;;11.50;99.90;;;;;;4880916;29;20453;-65
2023/12/31 09:27:19;;;;;;;3.77;3.47;;;11.50;99.90;;;;;;4887634;29;20437;-65
2023/12/31 09:29:45;;;;;;;3.77;3.53;;;11.40;99.90;;;;;;4897452;29;21009;-65
2023/12/31 09:32:11;;;;;;;3.93;3.73;;;11.40;99.90;;;;;;4896392;29;20805;-64
2023/12/31 09:34:37;;;;;;;4.63;4.00;;;11.40;99.90;;;;;;4897808;29;20777;-66
2023/12/31 09:37:03;;;;;;;4.17;3.83;;;11.30;99.90;;;;;;4892763;29;20429;-67
2023/12/31 09:39:29;;;;;;;4.27;3.97;;;11.50;99.90;;;;;;4896117;29;20187;-64
2023/12/31 09:42:08;;;;;;;4.30;4.00;;;11.40;99.90;;;;;;4885255;29;20440;-64
2023/12/31 09:44:35;;;;;;;4.20;3.90;;;11.60;99.90;;;;;;4907590;29;20445;-64
2023/12/31 09:47:04;;;;;;;14.30;10.77;;;11.70;99.90;;;;;;4890019;29;20424;-62
2023/12/31 09:49:32;;;;;;;5.20;4.00;;;11.80;99.90;;;;;;4892159;29;20549;-60
2023/12/31 09:52:03;;;;;;;6.73;6.07;;;11.90;99.90;;;;;;4897222;29;20432;-61
2023/12/31 09:54:32;;;;;;;6.37;5.77;;;12.10;99.90;;;;;;4879441;29;20435;-61
2023/12/31 09:56:58;;;;;;;7.10;5.60;;;12.40;99.90;;;;;;4889744;29;20510;-61
2023/12/31 09:59:28;;;;;;;5.47;5.00;;;12.60;99.90;;;;;;4892305;29;20511;-61
2023/12/31 10:01:57;;;;;;;4.40;4.10;;;12.80;99.90;;;;;;4894454;29;20435;-62
2023/12/31 10:04:24;;;;;;;4.30;4.00;;;12.60;99.90;;;;;;4893055;29;20423;-61
2023/12/31 10:06:51;;;;;;;6.23;5.60;;;12.40;99.90;;;;;;4901581;29;20522;-61
2023/12/31 10:09:19;;;;;;;5.77;5.20;;;12.50;99.90;;;;;;4899830;29;20530;-62
2023/12/31 10:11:46;;;;;;;4.80;4.17;;;12.80;99.90;;;;;;4903028;29;20510;-67
2023/12/31 10:14:13;;;;;;;4.80;4.40;;;13.00;99.90;;;;;;4899809;29;20433;-67
2023/12/31 10:16:45;;;;;;;4.77;4.47;;;12.60;99.90;;;;;;4898672;29;20457;-68
2023/12/31 10:19:11;;;;;;;4.90;4.50;;;12.50;99.90;;;;;;4898859;29;20987;-67
2023/12/31 10:21:38;;;;;;;4.60;4.30;;;12.20;99.90;;;;;;4898437;29;20424;-67
2023/12/31 10:24:04;;;;;;;4.87;4.40;;;12.20;99.90;;;;;;4900957;29;20430;-68
2023/12/31 10:26:31;;;;;;;3.73;3.50;;;12.20;99.90;;;;;;4881144;29;20772;-69
2023/12/31 10:28:56;;;;;;;4.83;4.43;;;12.30;99.90;;;;;;4867321;29;20933;-68
2023/12/31 10:31:24;;;;;;;5.50;5.00;;;12.20;99.90;;;;;;4879450;29;20517;-68
2023/12/31 10:33:50;;;;;;;5.00;4.60;;;12.20;99.90;;;;;;4888634;29;20185;-67
2023/12/31 10:36:22;;;;;;;537.37;350.00;;;12.30;99.90;;;;;;4897245;29;20429;-68
2023/12/31 10:38:49;;;;;;;6.20;5.70;;;12.30;99.90;;;;;;4880017;29;20474;-68
2023/12/31 10:41:20;;;;;;;4.90;4.50;;;12.40;99.90;;;;;;4897378;29;20479;-67
2023/12/31 10:43:47;;;;;;;4.87;4.47;;;12.30;99.90;;;;;;4885624;29;20471;-66
2023/12/31 10:46:15;;;;;;;4.77;4.47;;;12.20;99.90;;;;;;4896016;29;20418;-67
2023/12/31 10:48:50;;;;;;;5.80;5.30;;;12.20;99.90;;;;;;4888140;29;20436;-68
2023/12/31 10:51:22;;;;;;;5.13;4.80;;;12.40;99.90;;;;;;4896754;29;20962;-67
2023/12/31 10:54:01;;;;;;;4.90;4.50;;;12.50;99.90;;;;;;4896519;29;20556;-68
2023/12/31 10:56:27;;;;;;;5.17;4.77;;;12.60;99.90;;;;;;4895224;29;20485;-68
2023/12/31 10:58:57;;;;;;;4.63;4.33;;;12.60;99.90;;;;;;4870391;29;20988;-68
2023/12/31 11:01:24;;;;;;;5.53;5.10;;;12.60;99.90;;;;;;4894204;29;20192;-67
2023/12/31 11:03:52;;;;;;;5.30;4.90;;;12.40;99.90;;;;;;4895685;29;20498;-69
2023/12/31 11:06:19;;;;;;;5.10;4.70;;;12.40;99.90;;;;;;4870869;29;20794;-67
2023/12/31 11:08:45;;;;;;;5.20;4.77;;;12.40;99.90;;;;;;4892380;29;20865;-69
2023/12/31 11:11:11;;;;;;;4.57;3.77;;;12.50;99.90;;;;;;4896867;29;20464;-67
2023/12/31 11:13:40;;;;;;;4.63;4.20;;;12.50;99.90;;;;;;4894268;29;20427;-70
2023/12/31 11:16:14;;;;;;;4.53;4.23;;;12.40;99.90;;;;;;4896289;29;20784;-71
2023/12/31 11:19:25;;;;;;;4.83;3.87;;;12.40;99.90;;;;;;4893764;29;20449;-70
2023/12/31 11:22:18;;;;;;;3.57;3.37;;;12.40;99.90;;;;;;4846748;29;20434;-71
2023/12/31 11:24:44;;;;;;;3.60;3.33;;;12.50;99.90;;;;;;4885219;29;20437;-72
2023/12/31 11:27:17;;;;;;;39.87;25.73;;;12.40;99.90;;;;;;4886849;29;20949;-68
2023/12/31 11:29:49;;;;;;;5.17;4.77;;;12.40;99.90;;;;;;4873246;29;20962;-72
2023/12/31 11:32:17;;;;;;;4.00;3.70;;;12.30;99.90;;;;;;4876426;29;20442;-69
2023/12/31 11:34:42;;;;;;;4.30;3.90;;;12.30;99.90;;;;;;4893459;29;20493;-69
2023/12/31 11:37:09;;;;;;;3.77;3.40;;;12.40;99.90;;;;;;4891943;29;20485;-67
2023/12/31 11:39:35;;;;;;;3.47;3.27;;;12.50;99.90;;;;;;4897796;29;20696;-63
2023/12/31 11:42:11;;;;;;;4.80;4.10;;;12.60;99.90;;;;;;4888824;29;20419;-68
2023/12/31 11:44:43;;;;;;;3.33;3.13;;;12.50;99.90;;;;;;4890199;29;20175;-64
2023/12/31 11:47:25;;;;;;;3.37;3.17;;;12.60;99.90;;;;;;4878563;29;20424;-68
2023/12/31 11:49:54;;;;;;;3.17;2.97;;;12.60;99.90;;;;;;4893777;29;20438;-69
2023/12/31 11:52:21;;;;;;;3.77;3.47;;;12.50;99.90;;;;;;4889990;29;20431;-69
2023/12/31 11:54:50;;;;;;;2.77;2.60;;;12.50;99.90;;;;;;4888585;29;20463;-69
2023/12/31 11:57:19;;;;;;;2.50;2.40;;;12.50;99.90;;;;;;4896648;29;20436;-69
2023/12/31 11:59:45;;;;;;;2.10;2.00;;;12.50;99.90;;;;;;4895896;29;20414;-69
2023/12/31 12:02:11;;;;;;;2.20;2.10;;;12.50;99.90;;;;;;4896899;29;20770;-68
2023/12/31 12:04:37;;;;;;;2.00;2.00;;;12.50;99.90;;;;;;4895294;29;20190;-69
2023/12/31 12:07:03;;;;;;;4.30;3.07;;;12.30;99.90;;;;;;4897271;29;20474;-69
2023/12/31 12:09:36;;;;;;;1.73;1.63;;;12.40;99.90;;;;;;4896186;29;20440;-69
2023/12/31 12:12:07;;;;;;;2.20;2.10;;;12.40;99.90;;;;;;4897152;29;20416;-69
2023/12/31 12:14:33;;;;;;;1.30;1.30;;;12.20;99.90;;;;;;4882870;29;20748;-70
2023/12/31 12:17:00;;;;;;;1.90;1.80;;;12.30;99.90;;;;;;4900157;29;20931;-70
2023/12/31 12:19:26;;;;;;;2.47;2.37;;;12.30;99.90;;;;;;4900149;29;20418;-70
2023/12/31 12:21:53;;;;;;;1.90;1.80;;;12.20;99.90;;;;;;4899788;29;20417;-70
2023/12/31 12:24:19;;;;;;;1.67;1.63;;;12.20;99.90;;;;;;4900291;29;20413;-69
2023/12/31 12:26:49;;;;;;;1.80;1.80;;;12.00;99.90;;;;;;4899503;29;20467;-69
2023/12/31 12:29:16;;;;;;;1.83;1.83;;;12.00;99.90;;;;;;4900381;29;20441;-69
2023/12/31 12:31:46;;;;;;;3.10;2.80;;;12.00;99.90;;;;;;4899589;29;20459;-62
2023/12/31 12:34:15;;;;;;;2.43;2.33;;;12.10;99.90;;;;;;4899350;29;20442;-62
2023/12/31 12:36:42;;;;;;;2.67;2.57;;;12.30;99.90;;;;;;4899611;29;20450;-63
2023/12/31 12:39:20;;;;;;;3.40;3.30;;;12.50;99.90;;;;;;4900040;29;20497;-62
2023/12/31 12:41:51;;;;;;;9.67;8.67;;;12.60;99.90;;;;;;4882062;29;20954;-62
2023/12/31 12:44:19;;;;;;;37.67;26.53;;;12.90;99.90;;;;;;4900015;29;20415;-61